createdAt,value
2022-10-21T00:02:22.262Z,23.53
2022-10-21T00:04:49.800Z,26.93
2022-10-21T00:07:18.743Z,22.63
2022-10-21T00:09:46.314Z,21.20
2022-10-21T00:12:13.913Z,22.43
2022-10-21T00:14:41.492Z,23.77
2022-10-21T00:17:09.030Z,22.57
2022-10-21T00:19:37.646Z,25.03
2022-10-21T00:22:05.259Z,26.97
2022-10-21T00:24:34.456Z,26.23
2022-10-21T00:27:02.732Z,26.10
2022-10-21T00:29:30.303Z,23.70
2022-10-21T00:31:57.990Z,24.73
2022-10-21T00:34:29.919Z,22.10
2022-10-21T00:36:58.427Z,32.17
2022-10-21T00:39:26.018Z,29.60
2022-10-21T00:41:54.902Z,25.97
2022-10-21T00:44:22.557Z,24.03
2022-10-21T00:46:53.278Z,25.93
2022-10-21T00:49:25.143Z,22.00
2022-10-21T00:51:56.486Z,29.83
2022-10-21T00:54:25.821Z,23.23
2022-10-21T00:56:55.777Z,20.83
2022-10-21T00:59:25.031Z,30.93
2022-10-21T01:01:52.640Z,27.23
2022-10-21T01:04:20.238Z,22.73
2022-10-21T01:06:48.426Z,21.63
2022-10-21T01:09:16.335Z,24.73
2022-10-21T01:11:46.407Z,21.93
2022-10-21T01:14:29.734Z,24.10
2022-10-21T01:17:20.752Z,17.80
2022-10-21T01:20:16.247Z,18.40
2022-10-21T01:23:01.435Z,19.33
2022-10-21T01:25:50.852Z,19.30
2022-10-21T01:28:34.209Z,21.03
2022-10-21T01:31:09.766Z,18.20
2022-10-21T01:33:53.443Z,16.47
2022-10-21T01:36:29.782Z,24.70
2022-10-21T01:39:07.829Z,19.43
2022-10-21T01:41:40.846Z,20.57
2022-10-21T01:44:17.551Z,22.20
2022-10-21T01:46:51.431Z,27.60
2022-10-21T01:49:24.840Z,22.43
2022-10-21T01:51:54.351Z,33.00
2022-10-21T01:54:25.524Z,24.00
2022-10-21T01:56:54.678Z,21.20
2022-10-21T01:59:25.486Z,21.70
2022-10-21T02:01:56.602Z,22.80
2022-10-21T02:04:25.260Z,26.53
2022-10-21T02:06:53.015Z,22.10
2022-10-21T02:09:20.702Z,19.03
2022-10-21T02:11:51.276Z,27.43
2022-10-21T02:14:24.472Z,19.87
2022-10-21T02:16:54.995Z,20.30
2022-10-21T02:19:22.676Z,22.50
2022-10-21T02:21:53.698Z,18.90
2022-10-21T02:24:26.561Z,24.43
2022-10-21T02:26:54.634Z,19.77
2022-10-21T02:29:27.710Z,18.87
2022-10-21T02:32:21.454Z,21.87
2022-10-21T02:35:14.042Z,25.17
2022-10-21T02:37:46.877Z,20.67
2022-10-21T02:40:19.516Z,18.87
2022-10-21T02:42:51.035Z,22.47
2022-10-21T02:45:20.059Z,20.97
2022-10-21T02:47:50.244Z,21.93
2022-10-21T02:50:19.632Z,19.40
2022-10-21T02:52:47.220Z,17.73
2022-10-21T02:55:14.744Z,28.23
2022-10-21T02:57:42.317Z,27.60
2022-10-21T03:00:11.072Z,22.17
2022-10-21T03:02:38.582Z,23.43
2022-10-21T03:05:09.077Z,21.30
2022-10-21T03:07:36.950Z,25.90
2022-10-21T03:10:05.570Z,21.73
2022-10-21T03:12:33.168Z,24.33
2022-10-21T03:15:00.701Z,18.53
2022-10-21T03:17:28.281Z,18.43
2022-10-21T03:19:55.826Z,15.97
2022-10-21T03:22:24.696Z,19.87
2022-10-21T03:24:52.285Z,19.10
2022-10-21T03:27:19.921Z,19.93
2022-10-21T03:29:47.501Z,18.97
2022-10-21T03:32:15.054Z,19.37
2022-10-21T03:34:42.712Z,21.13
2022-10-21T03:37:10.360Z,17.80
2022-10-21T03:39:39.350Z,19.47
2022-10-21T03:42:06.902Z,17.47
2022-10-21T03:44:34.549Z,18.13
2022-10-21T03:47:02.104Z,16.67
2022-10-21T03:49:29.739Z,19.43
2022-10-21T03:51:57.321Z,22.47
2022-10-21T03:54:24.838Z,16.87
2022-10-21T03:56:53.904Z,16.70
2022-10-21T03:59:21.435Z,17.10
2022-10-21T04:01:49.116Z,21.70
2022-10-21T04:04:16.762Z,16.63
2022-10-21T04:06:44.349Z,17.83
2022-10-21T04:09:11.972Z,16.50
2022-10-21T04:11:39.662Z,18.87
2022-10-21T04:14:11.584Z,21.43
2022-10-21T04:16:42.359Z,17.57
2022-10-21T04:19:10.092Z,16.10
2022-10-21T04:21:37.668Z,15.97
2022-10-21T04:24:05.810Z,19.67
2022-10-21T04:26:33.514Z,19.13
2022-10-21T04:29:01.106Z,18.43
2022-10-21T04:31:32.241Z,18.50
2022-10-21T04:34:00.319Z,17.80
2022-10-21T04:36:27.922Z,22.80
2022-10-21T04:38:55.594Z,22.87
2022-10-21T04:41:23.206Z,20.63
2022-10-21T04:43:50.809Z,20.67
2022-10-21T04:46:20.750Z,31.13
2022-10-21T04:48:49.677Z,24.97
2022-10-21T04:51:17.280Z,18.83
2022-10-21T04:53:44.801Z,18.60
2022-10-21T04:56:12.360Z,20.70
2022-10-21T04:58:39.949Z,21.60
2022-10-21T05:01:07.587Z,34.27
2022-10-21T05:03:35.233Z,41.77
2022-10-21T05:06:04.347Z,19.60
2022-10-21T05:08:31.906Z,17.17
2022-10-21T05:11:00.724Z,22.30
2022-10-21T05:13:28.818Z,30.70
2022-10-21T05:15:59.689Z,25.20
2022-10-21T05:18:27.536Z,27.30
2022-10-21T05:20:56.364Z,32.03
2022-10-21T05:23:26.111Z,20.80
2022-10-21T05:25:53.800Z,20.53
2022-10-21T05:28:22.494Z,25.23
2022-10-21T05:30:50.492Z,26.00
2022-10-21T05:33:18.088Z,43.13
2022-10-21T05:35:45.727Z,27.47
2022-10-21T05:38:13.376Z,16.50
2022-10-21T05:40:42.249Z,32.83
2022-10-21T05:43:09.793Z,51.97
2022-10-21T05:45:37.360Z,25.60
2022-10-21T05:48:05.483Z,21.90
2022-10-21T05:50:33.048Z,19.73
2022-10-21T05:53:00.632Z,20.43
2022-10-21T05:55:28.246Z,32.80
2022-10-21T05:57:59.324Z,23.90
2022-10-21T06:00:27.396Z,22.00
2022-10-21T06:02:54.934Z,22.67
2022-10-21T06:05:22.748Z,32.73
2022-10-21T06:07:50.317Z,18.97
2022-10-21T06:10:18.286Z,22.23
2022-10-21T06:12:45.844Z,28.73
2022-10-21T06:15:14.771Z,38.67
2022-10-21T06:17:42.322Z,27.27
2022-10-21T06:20:10.229Z,25.97
2022-10-21T06:22:37.930Z,22.50
2022-10-21T06:25:05.946Z,26.60
2022-10-21T06:27:33.532Z,26.17
2022-10-21T06:30:01.146Z,19.00
2022-10-21T06:32:30.028Z,26.07
2022-10-21T06:34:57.600Z,22.97
2022-10-21T06:37:25.396Z,25.13
2022-10-21T06:39:53.007Z,23.63
2022-10-21T06:42:20.522Z,17.83
2022-10-21T06:44:48.247Z,17.37
2022-10-21T06:47:17.048Z,17.23
2022-10-21T06:49:45.910Z,18.47
2022-10-21T06:52:13.599Z,17.43
2022-10-21T06:54:41.235Z,16.77
2022-10-21T06:57:08.871Z,16.57
2022-10-21T06:59:36.575Z,25.20
2022-10-21T07:02:04.110Z,15.10
2022-10-21T07:04:31.703Z,16.13
2022-10-21T07:07:00.725Z,24.30
2022-10-21T07:09:28.368Z,16.80
2022-10-21T07:11:56.288Z,17.70
2022-10-21T07:14:25.177Z,21.70
2022-10-21T07:16:53.889Z,18.70
2022-10-21T07:19:21.423Z,13.30
2022-10-21T07:21:48.957Z,15.60
2022-10-21T07:24:22.301Z,20.83
2022-10-21T07:26:51.125Z,14.70
2022-10-21T07:29:18.786Z,18.07
2022-10-21T07:31:46.330Z,21.80
2022-10-21T07:34:13.896Z,21.10
2022-10-21T07:36:43.804Z,22.47
2022-10-21T07:39:14.556Z,19.33
2022-10-21T07:41:47.116Z,18.13
2022-10-21T07:44:15.486Z,21.90
2022-10-21T07:46:44.233Z,18.50
2022-10-21T07:49:13.072Z,17.87
2022-10-21T07:51:41.655Z,23.27
2022-10-21T07:54:09.783Z,23.57
2022-10-21T07:56:40.476Z,20.63
2022-10-21T07:59:12.892Z,23.07
2022-10-21T08:01:44.168Z,18.90
2022-10-21T08:04:12.827Z,16.53
2022-10-21T08:06:40.844Z,18.73
2022-10-21T08:09:08.593Z,13.93
2022-10-21T08:11:36.598Z,13.17
2022-10-21T08:14:07.553Z,17.00
2022-10-21T08:16:37.213Z,12.13
2022-10-21T08:19:07.962Z,11.43
2022-10-21T08:21:39.047Z,16.97
2022-10-21T08:24:07.195Z,13.53
2022-10-21T08:26:34.826Z,11.93
2022-10-21T08:29:03.749Z,10.10
2022-10-21T08:31:31.468Z,14.20
2022-10-21T08:34:00.557Z,9.90
2022-10-21T08:36:28.638Z,11.50
2022-10-21T08:38:56.386Z,13.07
2022-10-21T08:41:49.031Z,10.47
2022-10-21T08:44:30.984Z,10.47
2022-10-21T08:47:06.440Z,13.83
2022-10-21T08:49:46.874Z,11.93
2022-10-21T08:52:19.397Z,11.60
2022-10-21T08:54:51.386Z,15.17
2022-10-21T08:57:19.843Z,12.80
2022-10-21T08:59:47.739Z,13.33
2022-10-21T09:02:26.508Z,10.30
2022-10-21T09:05:00.863Z,15.93
2022-10-21T09:07:39.895Z,13.10
2022-10-21T09:10:18.849Z,12.37
2022-10-21T09:12:59.532Z,18.20
2022-10-21T09:15:32.030Z,10.23
2022-10-21T09:18:15.179Z,12.47
2022-10-21T09:20:56.024Z,11.77
2022-10-21T09:23:49.776Z,12.13
2022-10-21T09:26:30.573Z,12.27
2022-10-21T09:28:58.748Z,10.03
2022-10-21T09:31:26.302Z,9.83
2022-10-21T09:33:59.345Z,9.37
2022-10-21T09:36:35.711Z,12.13
2022-10-21T09:39:07.323Z,12.90
2022-10-21T09:41:41.197Z,14.33
2022-10-21T09:44:16.555Z,14.40
2022-10-21T09:46:45.936Z,13.23
2022-10-21T09:52:09.183Z,11.10
2022-10-21T09:54:40.912Z,10.30
2022-10-21T09:57:15.690Z,13.60
2022-10-21T09:59:54.513Z,10.13
2022-10-21T10:02:32.140Z,9.53
2022-10-21T10:04:59.872Z,8.20
2022-10-21T10:07:36.822Z,7.10
2022-10-21T10:10:32.131Z,16.20
2022-10-21T10:13:01.013Z,8.57
2022-10-21T10:15:35.029Z,12.27
2022-10-21T10:18:04.117Z,9.03
2022-10-21T10:20:34.718Z,10.27
2022-10-21T10:23:18.455Z,9.13
2022-10-21T10:25:52.380Z,7.37
2022-10-21T10:28:24.752Z,9.07
2022-10-21T10:30:55.312Z,5.77
2022-10-21T10:33:25.837Z,14.20
2022-10-21T10:36:05.387Z,5.80
2022-10-21T10:38:41.640Z,5.27
2022-10-21T10:41:12.158Z,4.63
2022-10-21T10:43:46.292Z,3.30
2022-10-21T10:46:25.049Z,4.00
2022-10-21T10:48:53.984Z,3.57
2022-10-21T10:51:27.469Z,3.03
2022-10-21T10:54:16.408Z,3.57
2022-10-21T10:56:48.084Z,7.23
2022-10-21T10:59:21.992Z,4.40
2022-10-21T11:01:58.143Z,2.73
2022-10-21T11:04:32.784Z,3.93
2022-10-21T11:07:10.403Z,3.43
2022-10-21T11:09:39.569Z,6.80
2022-10-21T11:12:20.233Z,4.90
2022-10-21T11:14:52.135Z,4.63
2022-10-21T11:17:22.232Z,3.87
2022-10-21T11:19:56.389Z,3.53
2022-10-21T11:22:33.243Z,3.50
2022-10-21T11:25:14.164Z,2.90
2022-10-21T11:28:10.000Z,2.60
2022-10-21T11:30:49.672Z,3.00
2022-10-21T11:33:26.351Z,3.60
2022-10-21T11:36:00.929Z,2.83
2022-10-21T11:38:48.002Z,2.83
2022-10-21T11:41:28.392Z,5.47
2022-10-21T11:44:16.280Z,3.77
2022-10-21T11:46:55.958Z,6.40
2022-10-21T11:49:39.601Z,5.90
2022-10-21T11:52:16.842Z,4.23
2022-10-21T11:55:09.333Z,4.97
2022-10-21T11:57:51.057Z,5.03
2022-10-21T12:00:21.368Z,6.73
2022-10-21T12:03:16.311Z,2.83
2022-10-21T12:05:51.018Z,5.00
2022-10-21T12:08:27.317Z,3.00
2022-10-21T12:11:01.113Z,5.30
2022-10-21T12:13:34.603Z,5.73
2022-10-21T12:16:07.052Z,3.27
2022-10-21T12:18:43.695Z,7.00
2022-10-21T12:21:16.610Z,3.33
2022-10-21T12:23:46.212Z,3.00
2022-10-21T12:26:21.125Z,2.50
2022-10-21T12:28:58.435Z,2.40
2022-10-21T12:31:40.774Z,2.20
2022-10-21T12:34:11.654Z,2.67
2022-10-21T12:36:42.443Z,2.00
2022-10-21T12:39:19.198Z,4.80
2022-10-21T12:41:47.509Z,9.93
2022-10-21T12:44:23.348Z,1.80
2022-10-21T12:46:53.898Z,2.30
2022-10-21T12:49:33.468Z,2.37
2022-10-21T12:52:10.036Z,4.90
2022-10-21T12:54:50.601Z,3.30
2022-10-21T12:57:26.619Z,4.77
2022-10-21T13:00:16.261Z,3.70
2022-10-21T13:03:00.716Z,2.20
2022-10-21T13:06:02.079Z,2.13
2022-10-21T13:08:40.015Z,3.63
2022-10-21T13:11:14.594Z,2.40
2022-10-21T13:13:43.827Z,7.10
2022-10-21T13:16:37.885Z,1.83
2022-10-21T13:19:26.561Z,3.63
2022-10-21T13:22:04.128Z,2.23
2022-10-21T13:24:33.731Z,2.60
2022-10-21T13:27:03.643Z,2.40
2022-10-21T13:29:43.453Z,1.77
2022-10-21T13:32:21.724Z,1.50
2022-10-21T13:35:31.834Z,1.67
2022-10-21T13:38:04.522Z,1.40
2022-10-21T13:40:38.813Z,2.27
2022-10-21T13:43:14.468Z,5.33
2022-10-21T13:45:48.197Z,1.93
2022-10-21T13:48:17.760Z,1.33
2022-10-21T13:50:47.391Z,2.00
2022-10-21T13:53:28.505Z,1.47
2022-10-21T13:56:01.836Z,2.30
2022-10-21T13:58:31.263Z,5.53
2022-10-21T14:01:08.533Z,1.90
2022-10-21T14:03:36.670Z,1.60
2022-10-21T14:06:08.237Z,2.30
2022-10-21T14:08:41.749Z,2.43
2022-10-21T14:11:15.068Z,2.20
2022-10-21T14:13:43.098Z,3.20
2022-10-21T14:16:13.649Z,2.07
2022-10-21T14:18:46.071Z,3.00
2022-10-21T14:21:19.235Z,2.33
2022-10-21T14:23:49.024Z,2.20
2022-10-21T14:26:16.879Z,3.67
2022-10-21T14:28:46.469Z,3.63
2022-10-21T14:31:15.529Z,2.10
2022-10-21T14:33:45.795Z,6.13
2022-10-21T14:36:18.667Z,2.67
2022-10-21T14:38:54.286Z,4.80
2022-10-21T14:41:25.976Z,2.20
2022-10-21T14:43:55.603Z,3.17
2022-10-21T14:46:23.388Z,2.30
2022-10-21T14:48:55.434Z,2.47
2022-10-21T14:51:23.931Z,2.50
2022-10-21T14:53:57.498Z,3.87
2022-10-21T14:56:30.208Z,3.23
2022-10-21T14:59:00.178Z,4.20
2022-10-21T15:01:28.190Z,2.50
2022-10-21T15:03:59.761Z,4.30
2022-10-21T15:06:29.976Z,2.73
2022-10-21T15:09:19.449Z,2.57
2022-10-21T15:11:48.144Z,2.67
2022-10-21T15:14:23.875Z,2.23
2022-10-21T15:16:54.741Z,7.47
2022-10-21T15:19:25.529Z,6.73
2022-10-21T15:21:57.015Z,4.90
2022-10-21T15:24:34.969Z,8.73
2022-10-21T15:27:03.779Z,7.30
2022-10-21T15:29:36.557Z,4.90
2022-10-21T15:32:06.358Z,6.77
2022-10-21T15:34:34.388Z,5.17
2022-10-21T15:37:02.075Z,4.20
2022-10-21T15:39:30.996Z,3.83
2022-10-21T15:41:58.896Z,4.50
2022-10-21T15:44:29.118Z,4.33
2022-10-21T15:47:00.572Z,3.70
2022-10-21T15:49:31.716Z,8.60
2022-10-21T15:51:59.533Z,3.87
2022-10-21T15:54:27.222Z,3.60
2022-10-21T15:56:56.440Z,2.30
2022-10-21T15:59:26.538Z,3.43
2022-10-21T16:01:55.355Z,5.73
2022-10-21T16:04:24.163Z,2.47
2022-10-21T16:06:52.806Z,5.27
2022-10-21T16:09:22.444Z,3.93
2022-10-21T16:12:00.014Z,2.77
2022-10-21T16:14:31.203Z,4.33
2022-10-21T16:16:59.616Z,3.33
2022-10-21T16:19:27.571Z,3.73
2022-10-21T16:21:55.596Z,4.13
2022-10-21T16:24:23.230Z,8.47
2022-10-21T16:26:51.087Z,8.47
2022-10-21T16:29:21.290Z,4.43
2022-10-21T16:31:50.844Z,7.43
2022-10-21T16:34:18.633Z,5.00
2022-10-21T16:36:46.293Z,2.90
2022-10-21T16:39:16.539Z,4.77
2022-10-21T16:41:44.072Z,5.77
2022-10-21T16:44:11.836Z,4.03
2022-10-21T16:46:41.654Z,11.10
2022-10-21T16:49:15.777Z,5.53
2022-10-21T16:51:45.974Z,6.47
2022-10-21T16:54:14.959Z,5.90
2022-10-21T16:56:42.501Z,3.03
2022-10-21T16:59:10.101Z,3.30
2022-10-21T17:01:37.925Z,3.57
2022-10-21T17:04:06.157Z,4.27
2022-10-21T17:06:35.138Z,6.70
2022-10-21T17:09:02.747Z,6.50
2022-10-21T17:11:33.952Z,4.53
2022-10-21T17:14:02.254Z,4.83
2022-10-21T17:16:30.023Z,6.30
2022-10-21T17:18:57.852Z,13.73
2022-10-21T17:21:27.761Z,5.93
2022-10-21T17:24:00.773Z,7.03
2022-10-21T17:26:30.068Z,6.33
2022-10-21T17:28:57.975Z,7.30
2022-10-21T17:31:27.845Z,4.70
2022-10-21T17:33:56.946Z,7.93
2022-10-21T17:36:24.548Z,10.00
2022-10-21T17:38:52.347Z,3.63
2022-10-21T17:41:21.562Z,5.00
2022-10-21T17:43:49.973Z,5.47
2022-10-21T17:46:18.937Z,11.67
2022-10-21T17:48:49.916Z,7.30
2022-10-21T17:51:17.761Z,5.33
2022-10-21T17:53:45.494Z,7.47
2022-10-21T17:56:13.051Z,8.63
2022-10-21T17:58:41.926Z,4.53
2022-10-21T18:01:10.990Z,4.53
2022-10-21T18:03:39.197Z,6.10
2022-10-21T18:06:08.790Z,4.57
2022-10-21T18:08:37.250Z,5.70
2022-10-21T18:11:09.109Z,6.77
2022-10-21T18:13:37.088Z,10.00
2022-10-21T18:16:08.474Z,9.93
2022-10-21T18:18:37.296Z,6.60
2022-10-21T18:21:07.373Z,5.77
2022-10-21T18:23:36.316Z,8.33
2022-10-21T18:26:04.980Z,7.07
2022-10-21T18:28:33.951Z,4.00
2022-10-21T18:31:01.622Z,11.30
2022-10-21T18:33:30.832Z,8.10
2022-10-21T18:36:07.795Z,6.17
2022-10-21T18:38:35.349Z,3.60
2022-10-21T18:41:19.020Z,10.10
2022-10-21T18:43:49.726Z,4.40
2022-10-21T18:46:18.002Z,4.83
2022-10-21T18:48:47.203Z,6.40
2022-10-21T18:51:16.453Z,7.37
2022-10-21T18:53:48.441Z,5.97
2022-10-21T18:56:19.538Z,3.20
2022-10-21T18:58:47.321Z,4.97
2022-10-21T19:01:15.875Z,5.40
2022-10-21T19:03:44.612Z,5.63
2022-10-21T19:06:18.517Z,6.43
2022-10-21T19:08:46.311Z,10.20
2022-10-21T19:11:14.042Z,4.93
2022-10-21T19:13:41.642Z,5.60
2022-10-21T19:16:09.447Z,4.43
2022-10-21T19:18:37.822Z,3.63
2022-10-21T19:21:05.823Z,12.43
2022-10-21T19:23:35.057Z,7.83
2022-10-21T19:26:03.970Z,4.90
2022-10-21T19:28:32.102Z,4.50
2022-10-21T19:30:59.883Z,4.43
2022-10-21T19:33:27.854Z,6.47
2022-10-21T19:35:55.697Z,4.10
2022-10-21T19:38:39.770Z,8.80
2022-10-21T19:41:14.280Z,4.93
2022-10-21T19:43:41.983Z,6.77
2022-10-21T19:46:10.092Z,3.20
2022-10-21T19:48:38.024Z,10.53
2022-10-21T19:51:06.050Z,3.10
2022-10-21T19:53:34.532Z,5.40
2022-10-21T19:56:04.113Z,2.93
2022-10-21T19:58:34.064Z,5.67
2022-10-21T20:01:02.762Z,12.67
2022-10-21T20:03:30.461Z,6.93
2022-10-21T20:05:58.098Z,3.10
2022-10-21T20:11:01.239Z,4.00
2022-10-21T20:13:29.562Z,6.40
2022-10-21T20:15:58.741Z,6.93
2022-10-21T20:18:27.521Z,3.83
2022-10-21T20:20:55.807Z,6.20
2022-10-21T20:23:23.495Z,4.40
2022-10-21T20:25:53.724Z,4.90
2022-10-21T20:28:21.959Z,3.80
2022-10-21T20:30:58.336Z,4.27
2022-10-21T20:33:26.164Z,3.73
2022-10-21T20:35:54.189Z,3.90
2022-10-21T20:38:21.905Z,9.77
2022-10-21T20:40:54.028Z,5.20
2022-10-21T20:43:21.689Z,5.47
2022-10-21T20:45:49.758Z,5.63
2022-10-21T20:48:18.657Z,6.43
2022-10-21T20:50:46.349Z,4.47
2022-10-21T20:53:13.934Z,9.00
2022-10-21T20:55:42.765Z,5.83
2022-10-21T20:58:10.337Z,5.73
2022-10-21T21:00:38.235Z,4.90
2022-10-21T21:03:05.824Z,3.83
2022-10-21T21:05:38.911Z,3.40
2022-10-21T21:08:06.999Z,4.77
2022-10-21T21:10:34.763Z,4.67
2022-10-21T21:13:02.527Z,8.13
2022-10-21T21:15:30.086Z,5.87
2022-10-21T21:17:58.640Z,6.80
2022-10-21T21:20:26.214Z,6.10
2022-10-21T21:22:55.732Z,3.20
2022-10-21T21:25:23.600Z,5.77
2022-10-21T21:27:51.315Z,8.03
2022-10-21T21:30:19.081Z,3.97
2022-10-21T21:32:46.716Z,3.77
2022-10-21T21:35:14.726Z,7.33
2022-10-21T21:37:42.366Z,7.93
2022-10-21T21:40:12.434Z,5.00
2022-10-21T21:42:40.544Z,8.23
2022-10-21T21:45:09.610Z,4.97
2022-10-21T21:47:37.202Z,8.33
2022-10-21T21:50:04.954Z,7.30
2022-10-21T21:52:32.716Z,15.43
2022-10-21T21:55:00.329Z,8.53
2022-10-21T21:57:29.288Z,12.73
2022-10-21T21:59:56.941Z,7.23
2022-10-21T22:02:25.610Z,10.47
2022-10-21T22:04:53.234Z,8.03
2022-10-21T22:07:20.826Z,7.73
2022-10-21T22:09:49.170Z,6.03
2022-10-21T22:12:17.839Z,8.03
2022-10-21T22:14:47.761Z,7.70
2022-10-21T22:17:15.350Z,8.47
2022-10-21T22:19:42.873Z,8.07
2022-10-21T22:22:10.897Z,6.97
2022-10-21T22:24:38.461Z,7.43
2022-10-21T22:27:06.081Z,9.80
2022-10-21T22:29:33.676Z,7.77
2022-10-21T22:32:02.698Z,7.80
2022-10-21T22:34:30.667Z,8.53
2022-10-21T22:36:58.589Z,7.50
2022-10-21T22:39:26.158Z,11.63
2022-10-21T22:41:53.732Z,8.90
2022-10-21T22:44:22.084Z,11.00
2022-10-21T22:46:49.713Z,7.10
2022-10-21T22:49:18.649Z,10.13
2022-10-21T22:51:46.336Z,8.73
2022-10-21T22:54:29.708Z,7.23
2022-10-21T22:57:01.870Z,9.60
2022-10-21T22:59:29.472Z,7.23
2022-10-21T23:01:57.126Z,9.33
2022-10-21T23:04:26.452Z,10.80
2022-10-21T23:06:54.033Z,8.23
2022-10-21T23:09:21.615Z,7.63
2022-10-21T23:11:49.189Z,10.93
2022-10-21T23:14:16.736Z,10.50
2022-10-21T23:16:44.367Z,7.23
2022-10-21T23:21:46.656Z,7.63
2022-10-21T23:24:14.764Z,10.67
2022-10-21T23:26:42.445Z,9.60
2022-10-21T23:29:10.021Z,11.40
2022-10-21T23:31:37.804Z,10.77
2022-10-21T23:34:05.962Z,12.90
2022-10-21T23:36:34.435Z,15.73
2022-10-21T23:39:04.526Z,10.30
2022-10-21T23:41:32.153Z,7.00
2022-10-21T23:43:59.762Z,8.50
2022-10-21T23:48:59.789Z,9.90
2022-10-21T23:51:27.533Z,22.73
2022-10-21T23:53:55.055Z,13.33
2022-10-21T23:56:24.152Z,7.03
2022-10-21T23:58:51.687Z,7.10
